Flight Track Log - Related Links

Times and Time Zones

All times are in EDT time to prevent confusion due to time zone crossing. See the KFS729 flight status page for this flight to view local times or setup timezone preferences in your user account.

Time Position Orientation Groundspeed Altitude Reporting Facility
EDT Latitude Longitude Course Direction KTS MPH feet Rate Location/Type
Tue 08:28:03 PM 35.0167 -89.9667 195° South 173 199 900  Level KMEM
Tue 08:29:03 PM 34.9667 -89.9833 195° South 212 244 2,200 1,574 Climbing KMEM
Tue 08:30:05 PM 34.9333 -90.0500 239° Southwest 255 293 4,100 1,897 Climbing KMEM
Tue 08:31:00 PM 34.9167 -90.1333 256° West 272 313 5,900 2,191 Climbing KMEM
Tue 08:32:00 PM 34.9167 -90.2167 270° West 274 315 8,300 1,890 Climbing KMEM
Tue 08:33:26 PM 34.9156 -90.3597 269° West 297 342 10,500 1,233 Climbing Memphis Center
Tue 08:34:26 PM 34.9072 -90.4711 265° West 320 368 11,300 850 Climbing Memphis Center
Tue 08:35:26 PM 34.8967 -90.5950 264° West 360 414 12,200 1,050 Climbing Memphis Center
Tue 08:36:26 PM 34.8378 -90.7036 237° Southwest 379 436 13,400 1,350 Climbing Memphis Center
Tue 08:37:26 PM 34.7561 -90.8019 225° Southwest 397 457 14,900 1,400 Climbing Memphis Center
Tue 08:38:26 PM 34.6806 -90.9078 229° Southwest 419 482 16,200 1,250 Climbing Memphis Center
Tue 08:39:26 PM 34.5989 -91.0131 227° Southwest 429 494 17,400 1,250 Climbing Memphis Center
Tue 08:40:26 PM 34.5064 -91.1333 227° Southwest 444 511 18,700 1,300 Climbing Memphis Center
Tue 08:41:26 PM 34.4242 -91.2461 229° Southwest 444 511 20,000 1,200 Climbing Memphis Center
Tue 08:42:26 PM 34.3400 -91.3558 227° Southwest 444 511 21,100 1,050 Climbing Memphis Center
Tue 08:43:26 PM 34.2556 -91.4678 228° Southwest 444 511 22,100 1,050 Climbing Memphis Center
Tue 08:44:26 PM 34.1667 -91.5797 226° Southwest 449 517 23,200 1,000 Climbing Memphis Center
Tue 08:45:26 PM 34.0781 -91.6939 227° Southwest 461 531 24,100 852 Climbing Memphis Center
Tue 08:47:29 PM 33.9111 -91.9153 228° Southwest 465 535 25,800 721 Climbing Fort Worth Center
Tue 08:48:29 PM 33.8264 -92.0331 229° Southwest 471 542 26,300 550 Climbing Fort Worth Center
Tue 08:49:29 PM 33.7314 -92.1514 226° Southwest 483 556 26,900 650 Climbing Fort Worth Center
Tue 08:50:29 PM 33.6381 -92.2692 226° Southwest 483 556 27,600 650 Climbing Fort Worth Center
Tue 08:51:29 PM 33.5450 -92.3892 227° Southwest 483 556 28,200 600 Climbing Fort Worth Center
Tue 08:52:29 PM 33.4514 -92.5067 226° Southwest 483 556 28,800 600 Climbing Fort Worth Center
Tue 08:53:29 PM 33.3578 -92.6236 226° Southwest 488 562 29,400 600 Climbing Fort Worth Center
Tue 08:54:29 PM 33.2622 -92.7456 227° Southwest 488 562 30,000 600 Climbing Fort Worth Center
Tue 08:55:29 PM 33.1986 -92.8856 242° Southwest 488 562 30,600 600 Climbing Fort Worth Center
Tue 08:56:29 PM 33.1325 -93.0253 241° Southwest 488 562 31,200 550 Climbing Fort Worth Center
Tue 08:57:29 PM 33.0686 -93.1647 241° Southwest 488 562 31,700 400 Climbing Fort Worth Center
Tue 08:58:29 PM 33.0064 -93.3039 242° Southwest 488 562 32,000 150 Climbing Fort Worth Center
Tue 08:59:29 PM 32.9419 -93.4456 242° Southwest 488 562 32,000  Level Fort Worth Center
Tue 09:00:29 PM 32.8733 -93.5869 240° Southwest 494 568 32,000  Level Fort Worth Center
Tue 09:01:29 PM 32.8089 -93.7331 242° Southwest 494 568 32,000  Level Fort Worth Center
Tue 09:02:29 PM 32.7356 -93.8719 238° Southwest 494 568 32,000  Level Fort Worth Center
Tue 09:03:29 PM 32.6536 -94.0036 234° Southwest 494 568 32,000  Level Fort Worth Center
Tue 09:04:29 PM 32.5717 -94.1372 234° Southwest 506 582 32,000  Level Fort Worth Center
Tue 09:05:29 PM 32.4833 -94.2808 234° Southwest 506 582 32,000  Level Fort Worth Center
Tue 09:06:29 PM 32.4011 -94.4117 233° Southwest 506 582 32,000  Level Fort Worth Center
Tue 09:07:29 PM 32.3183 -94.5422 233° Southwest 506 582 32,000  Level Fort Worth Center
Tue 09:08:29 PM 32.2378 -94.6725 234° Southwest 506 582 32,000  Level Fort Worth Center
Tue 09:09:29 PM 32.1714 -94.7922 237° Southwest 506 582 32,000  Level Fort Worth Center
Tue 09:10:29 PM 32.0864 -94.9244 233° Southwest 506 582 32,000  Level Fort Worth Center
Tue 09:11:29 PM 32.0033 -95.0517 232° Southwest 506 582 32,000  Level Fort Worth Center
Tue 09:12:29 PM 31.9181 -95.1814 232° Southwest 501 577 32,000  Level Fort Worth Center
Tue 09:13:29 PM 31.8325 -95.3056 231° Southwest 496 571 32,000  Level Fort Worth Center
Tue 09:15:44 PM 31.6353 -95.6000 232° Southwest 493 567 32,000  Level Houston Center
Tue 09:16:45 PM 31.5494 -95.7272 232° Southwest 496 571 32,000  Level Houston Center
Tue 09:17:47 PM 31.4656 -95.8539 232° Southwest 495 570 32,000  Level Houston Center
Tue 09:18:48 PM 31.3792 -95.9806 231° Southwest 499 574 32,000  Level Houston Center
Tue 09:19:50 PM 31.2856 -96.1197 232° Southwest 498 573 32,000  Level Houston Center
Tue 09:20:51 PM 31.1972 -96.2486 231° Southwest 502 578 32,000  Level Houston Center
Tue 09:21:53 PM 31.1106 -96.3772 232° Southwest 499 574 32,000  Level Houston Center
Tue 09:22:54 PM 31.0219 -96.5078 232° Southwest 505 581 32,000  Level Houston Center
Tue 09:23:55 PM 30.9325 -96.6361 231° Southwest 505 581 32,000  Level Houston Center
Tue 09:24:57 PM 30.8417 -96.7647 231° Southwest 505 581 32,000  Level Houston Center
Tue 09:25:58 PM 30.7519 -96.8939 231° Southwest 505 581 32,000  Level Houston Center
Tue 09:26:59 PM 30.6631 -97.0242 232° Southwest 504 580 32,000  Level Houston Center
Tue 09:28:01 PM 30.5728 -97.1531 231° Southwest 504 580 32,000  Level Houston Center
Tue 09:29:02 PM 30.4889 -97.2858 234° Southwest 503 579 32,000  Level Houston Center
Tue 09:30:03 PM 30.4092 -97.4211 236° Southwest 500 575 32,000  Level Houston Center
Tue 09:31:05 PM 30.3281 -97.5544 235° Southwest 498 573 32,000  Level Houston Center
Tue 09:32:06 PM 30.2194 -97.6511 218° Southwest 488 562 32,000  Level Houston Center
Tue 09:33:07 PM 30.0983 -97.7269 208° Southwest 490 564 32,000  Level Houston Center
Tue 09:34:08 PM 29.9667 -97.8197 211° Southwest 489 563 32,000  Level Houston Center
Tue 09:35:10 PM 29.8511 -97.9028 212° Southwest 489 563 32,000  Level Houston Center
Tue 09:36:11 PM 29.7328 -97.9856 211° Southwest 495 570 32,000  Level Houston Center
Tue 09:37:12 PM 29.6067 -98.0747 212° Southwest 493 567 32,000  Level Houston Center
Tue 09:38:13 PM 29.4892 -98.1581 212° Southwest 495 570 32,000  Level Houston Center
Tue 09:39:15 PM 29.3703 -98.2411 211° Southwest 496 571 32,000  Level Houston Center
Tue 09:40:16 PM 29.2514 -98.3253 212° Southwest 499 574 32,000  Level Houston Center
Tue 09:41:17 PM 29.1328 -98.4089 212° Southwest 498 573 32,000  Level Houston Center
Tue 09:42:18 PM 29.0053 -98.4983 212° Southwest 498 573 32,000  Level Houston Center
Tue 09:43:19 PM 28.8861 -98.5814 211° Southwest 500 575 32,000  Level Houston Center
Tue 09:44:21 PM 28.7675 -98.6642 211° Southwest 500 575 32,000  Level Houston Center
Tue 09:45:22 PM 28.6569 -98.7394 211° Southwest 502 578 32,000  Level Houston Center
Tue 09:46:23 PM 28.5367 -98.8222 211° Southwest 507 583 32,000  Level Houston Center
Tue 09:47:24 PM 28.4175 -98.9036 211° Southwest 502 578 32,000  Level Houston Center
Tue 09:48:25 PM 28.2972 -98.9869 211° Southwest 507 583 32,000  Level Houston Center
Tue 09:49:27 PM 28.1539 -99.0858 211° Southwest 505 581 32,000  Level Houston Center
Tue 09:50:28 PM 28.0344 -99.1669 211° Southwest 505 581 32,000  Level Houston Center
Tue 09:51:29 PM 27.9158 -99.2489 211° Southwest 504 580 32,000  Level Houston Center
Tue 09:52:30 PM 27.7964 -99.3303 211° Southwest 505 581 32,000  Level Houston Center
Tue 09:53:31 PM 27.6769 -99.4111 211° Southwest 504 580 32,000  Level Houston Center
Tue 09:54:32 PM 27.5569 -99.4925 211° Southwest 508 585 32,000  Level Houston Center
Tue 09:55:33 PM 27.4369 -99.5731 211° Southwest 507 583 32,000  Level Houston Center
Tue 09:57:00 PM 27.2801 -99.6649 214° Southwest  Level FlightAware Approximate
Tue 10:04:00 PM 26.5680 -100.1752 215° Southwest  Level FlightAware Approximate
Tue 10:05:00 PM 26.4688 -100.2529 215° Southwest  Level FlightAware Approximate
Tue 10:06:00 PM 26.3696 -100.3306 215° Southwest  Level FlightAware Approximate
Tue 10:07:00 PM 26.2704 -100.4081 215° Southwest  Level FlightAware Approximate
Tue 10:08:00 PM 26.1691 -100.4818 211° Southwest  Level FlightAware Approximate
Tue 10:09:00 PM 26.0651 -100.5510 210° Southwest  Level FlightAware Approximate
Tue 10:10:00 PM 25.9600 -100.6180 210° Southwest  Level FlightAware Approximate
Tue 10:11:00 PM 25.8561 -100.6871 214° Southwest  Level FlightAware Approximate
Tue 10:12:00 PM 25.7557 -100.7624 214° Southwest  Level FlightAware Approximate
Tue 10:13:00 PM 25.6539 -100.8343 208° Southwest  Level FlightAware Approximate
Tue 10:14:00 PM 25.5505 -100.9038 214° Southwest  Level FlightAware Approximate

Login

Don't have an account? Register now (free) for customized features, flight alerts, and more!